Time;durP1;ratioP1;P1;durP2;ratioP2;P2;SDS_P1;SDS_P2;PMS_P1;PMS_P2;Temp;Humidity;BMP_temperature;BMP_pressure;BME280_temperature;BME280_humidity;BME280_pressure;Samples;Min_cycle;Max_cycle;Signal;HPM_P1;HPM_P2
2023/07/15 00:01:37;;;;;;;0.50;0.50;;;;;;;19.94;100.00;99779.44;4915285;29;20233;-79
2023/07/15 00:04:11;;;;;;;0.52;0.50;;;;;;;19.92;100.00;99809.97;4942655;29;20234;-79
2023/07/15 00:06:39;;;;;;;0.40;0.40;;;;;;;19.89;100.00;99827.06;4942393;29;20734;-79
2023/07/15 00:09:05;;;;;;;0.55;0.55;;;;;;;19.76;100.00;99832.03;4941637;29;20234;-79
2023/07/15 00:11:34;;;;;;;0.85;0.85;;;;;;;19.71;100.00;99822.41;4943603;28;20229;-80
2023/07/15 00:14:02;;;;;;;0.73;0.70;;;;;;;19.70;100.00;99828.69;4931306;29;20279;-79
2023/07/15 00:16:30;;;;;;;0.88;0.80;;;;;;;19.65;100.00;99819.94;4938068;28;20242;-79
2023/07/15 00:18:58;;;;;;;0.70;0.70;;;;;;;19.57;100.00;99830.09;4944445;29;20272;-80
2023/07/15 00:21:30;;;;;;;1.95;1.02;;;;;;;19.58;100.00;99845.25;4942362;29;20241;-79
2023/07/15 00:23:57;;;;;;;0.93;0.80;;;;;;;19.48;100.00;99864.31;4929802;29;20230;-80
2023/07/15 00:26:28;;;;;;;2.05;1.02;;;;;;;19.45;100.00;99861.72;4940803;29;20706;-79
2023/07/15 00:28:57;;;;;;;0.73;0.73;;;;;;;19.58;100.00;99855.97;4930261;29;20242;-79
2023/07/15 00:31:24;;;;;;;2.35;1.02;;;;;;;19.44;100.00;99857.31;4939859;28;20237;-79
2023/07/15 00:33:52;;;;;;;1.00;0.90;;;;;;;19.37;100.00;99873.66;4918679;29;20669;-79
2023/07/15 00:36:19;;;;;;;2.15;0.82;;;;;;;19.41;100.00;99861.91;4942177;29;20233;-79
2023/07/15 00:38:46;;;;;;;1.00;1.00;;;;;;;19.33;100.00;99872.91;4930184;29;20236;-79
2023/07/15 00:41:28;;;;;;;1.27;0.98;;;;;;;19.30;100.00;99861.41;4939614;29;20225;-79
2023/07/15 00:46:48;;;;;;;2.45;1.30;;;;;;;19.12;100.00;99884.38;4941740;28;20237;-79
2023/07/15 00:49:20;;;;;;;1.30;0.80;;;;;;;19.17;100.00;99879.72;4937573;29;20239;-79
2023/07/15 00:52:12;;;;;;;0.80;0.70;;;;;;;19.15;100.00;99895.00;4945293;28;20237;-79
2023/07/15 00:54:41;;;;;;;0.68;0.68;;;;;;;19.10;100.00;99883.56;4919051;29;20238;-79
2023/07/15 00:57:10;;;;;;;1.08;0.85;;;;;;;18.94;100.00;99883.22;4939639;29;20249;-79
2023/07/15 00:59:39;;;;;;;0.90;0.90;;;;;;;18.95;100.00;99910.88;4927820;29;20244;-79
2023/07/15 01:02:07;;;;;;;0.50;0.50;;;;;;;18.97;100.00;99900.97;4943007;28;20236;-79
2023/07/15 01:04:35;;;;;;;0.50;0.50;;;;;;;18.84;100.00;99916.59;4943816;28;20328;-79
2023/07/15 01:07:04;;;;;;;0.50;0.50;;;;;;;18.52;100.00;99922.94;4944344;29;20225;-79
2023/07/15 01:09:32;;;;;;;0.80;0.80;;;;;;;18.45;100.00;99932.09;4940507;29;20257;-79
2023/07/15 01:11:59;;;;;;;0.80;0.80;;;;;;;18.50;100.00;99943.53;4943172;29;20308;-79
2023/07/15 01:14:30;;;;;;;1.92;1.15;;;;;;;18.54;100.00;99929.13;4940856;28;20272;-79
2023/07/15 01:16:57;;;;;;;0.70;0.70;;;;;;;18.64;100.00;99927.94;4923872;29;20238;-79
2023/07/15 01:19:24;;;;;;;1.55;1.25;;;;;;;18.66;100.00;99920.75;4939687;28;20230;-79
2023/07/15 01:21:50;;;;;;;0.88;0.85;;;;;;;18.49;100.00;99931.09;4926461;29;20226;-79
2023/07/15 01:24:19;;;;;;;3.08;1.45;;;;;;;18.46;100.00;99950.78;4936272;28;20237;-79
2023/07/15 01:26:47;;;;;;;0.70;0.70;;;;;;;18.40;100.00;99948.31;4925071;29;20257;-80
2023/07/15 01:29:14;;;;;;;1.38;1.00;;;;;;;18.27;100.00;99954.06;4940199;29;20233;-79
2023/07/15 01:31:43;;;;;;;0.93;0.80;;;;;;;18.29;100.00;99961.13;4928731;29;20233;-79
2023/07/15 01:34:12;;;;;;;2.15;1.17;;;;;;;18.37;100.00;99966.25;4924070;29;20579;-79
2023/07/15 01:36:39;;;;;;;0.70;0.70;;;;;;;18.38;100.00;99982.28;4927299;29;20234;-79
2023/07/15 01:39:09;;;;;;;0.88;0.88;;;;;;;18.48;100.00;99975.72;4943514;28;20706;-80
2023/07/15 01:41:36;;;;;;;0.90;0.80;;;;;;;18.29;100.00;99979.88;4937013;28;20748;-79
2023/07/15 01:44:04;;;;;;;0.60;0.60;;;;;;;18.23;100.00;99985.41;4945217;29;20237;-80
2023/07/15 01:46:34;;;;;;;1.05;0.85;;;;;;;18.37;100.00;99975.16;4939328;29;20244;-80
2023/07/15 01:49:03;;;;;;;1.02;0.93;;;;;;;18.31;100.00;99983.38;4931556;29;20284;-80
2023/07/15 01:51:30;;;;;;;0.77;0.77;;;;;;;18.28;100.00;99985.28;4940285;29;20249;-80
2023/07/15 01:53:57;;;;;;;2.38;1.75;;;;;;;18.22;100.00;99997.91;4926584;28;20233;-80
2023/07/15 01:56:23;;;;;;;2.70;1.50;;;;;;;18.14;100.00;99993.69;4942473;29;20238;-80
2023/07/15 01:58:50;;;;;;;0.70;0.70;;;;;;;18.05;100.00;99986.78;4911991;29;20322;-80
2023/07/15 02:01:18;;;;;;;2.38;1.42;;;;;;;18.02;100.00;100002.94;4940481;29;20221;-79
2023/07/15 02:03:45;;;;;;;0.70;0.70;;;;;;;18.09;100.00;100014.34;4908413;29;20252;-80
2023/07/15 02:06:16;;;;;;;2.15;1.08;;;;;;;17.87;100.00;99998.00;4939123;29;20328;-79
2023/07/15 02:08:44;;;;;;;0.60;0.60;;;;;;;17.99;100.00;99992.31;4928702;29;20234;-80
2023/07/15 02:11:11;;;;;;;2.05;1.27;;;;;;;18.01;100.00;100003.84;4939770;28;20277;-79
2023/07/15 02:13:38;;;;;;;0.65;0.65;;;;;;;17.92;100.00;100006.78;4944043;29;20242;-79
2023/07/15 02:16:05;;;;;;;0.60;0.60;;;;;;;17.85;100.00;100014.09;4943199;28;20245;-80
2023/07/15 02:18:31;;;;;;;1.02;0.93;;;;;;;17.70;100.00;100001.16;4938756;29;20245;-80
2023/07/15 02:20:58;;;;;;;0.80;0.70;;;;;;;17.77;100.00;100012.56;4947822;28;20253;-79
2023/07/15 02:23:25;;;;;;;1.88;0.98;;;;;;;17.94;100.00;100020.13;4937973;28;20250;-80
2023/07/15 02:25:52;;;;;;;1.10;1.00;;;;;;;17.92;100.00;100010.34;4944386;29;20238;-80
2023/07/15 02:28:20;;;;;;;1.70;1.25;;;;;;;17.99;100.00;99996.78;4940425;28;20233;-80
2023/07/15 02:30:47;;;;;;;0.70;0.70;;;;;;;17.99;100.00;99997.66;4945730;28;20252;-80
2023/07/15 02:33:14;;;;;;;1.58;1.15;;;;;;;18.08;100.00;100009.91;4923810;29;20221;-80
2023/07/15 02:35:41;;;;;;;0.68;0.68;;;;;;;18.20;100.00;100010.47;4938614;28;20248;-79
2023/07/15 02:38:09;;;;;;;0.93;0.82;;;;;;;18.15;100.00;100003.47;4937960;29;20252;-79
2023/07/15 02:40:36;;;;;;;0.82;0.70;;;;;;;18.09;100.00;100009.88;4940211;29;20237;-80
2023/07/15 02:43:03;;;;;;;0.77;0.77;;;;;;;18.03;100.00;99990.44;4936277;29;20234;-80
2023/07/15 02:45:29;;;;;;;0.70;0.70;;;;;;;18.05;100.00;99985.91;4937447;28;20299;-79
2023/07/15 02:47:56;;;;;;;0.60;0.60;;;;;;;18.01;100.00;99981.56;4942583;29;20249;-79
2023/07/15 02:50:23;;;;;;;1.02;0.93;;;;;;;18.00;100.00;99998.53;4924501;28;20229;-79
2023/07/15 02:52:50;;;;;;;0.80;0.70;;;;;;;18.03;100.00;100003.81;4923622;28;20678;-79
2023/07/15 02:55:17;;;;;;;1.75;1.30;;;;;;;18.00;100.00;99995.88;4941869;28;20230;-79
2023/07/15 02:57:44;;;;;;;0.60;0.60;;;;;;;17.95;100.00;100000.47;4946728;28;20237;-79
2023/07/15 03:00:15;;;;;;;1.42;1.13;;;;;;;17.89;100.00;100004.19;4908299;29;20233;-80
2023/07/15 03:02:49;;;;;;;0.73;0.70;;;;;;;17.80;100.00;100001.78;4944056;28;20248;-79
2023/07/15 03:05:16;;;;;;;1.70;1.08;;;;;;;17.87;100.00;99992.66;4925919;28;20249;-79
2023/07/15 03:07:44;;;;;;;0.60;0.60;;;;;;;17.90;100.00;99989.91;4946303;29;20254;-80
2023/07/15 03:10:12;;;;;;;1.52;0.95;;;;;;;17.87;100.00;99985.50;4942231;28;20221;-80
2023/07/15 03:12:40;;;;;;;1.00;0.80;;;;;;;17.89;100.00;99988.16;4946054;28;20229;-79
2023/07/15 03:15:07;;;;;;;1.25;0.95;;;;;;;17.84;100.00;99980.25;4944012;29;20229;-79
2023/07/15 03:17:35;;;;;;;0.80;0.73;;;;;;;17.88;100.00;99979.25;4944307;29;20234;-79
2023/07/15 03:20:22;;;;;;;0.70;0.65;;;;;;;17.88;100.00;99975.69;4946197;28;20232;-79
2023/07/15 03:22:50;;;;;;;0.90;0.85;;;;;;;17.87;100.00;99966.78;4932773;28;20684;-80
2023/07/15 03:25:19;;;;;;;1.67;1.10;;;;;;;17.83;100.00;99977.63;4942991;28;20320;-79
2023/07/15 03:27:50;;;;;;;0.98;0.82;;;;;;;17.66;100.00;99988.78;4946035;29;20296;-80
2023/07/15 03:30:18;;;;;;;4.13;1.67;;;;;;;17.54;100.00;99981.94;4927461;29;20280;-79
2023/07/15 03:32:45;;;;;;;0.85;0.80;;;;;;;17.59;100.00;100008.53;4950225;28;20230;-79
2023/07/15 03:35:12;;;;;;;2.08;1.05;;;;;;;17.57;100.00;100007.72;4946830;28;20229;-79
2023/07/15 03:37:43;;;;;;;1.02;0.90;;;;;;;17.56;100.00;100009.50;4954160;28;20243;-80
2023/07/15 03:40:12;;;;;;;1.77;1.05;;;;;;;17.55;100.00;100010.41;4925101;29;20233;-79
2023/07/15 03:42:39;;;;;;;1.08;0.98;;;;;;;17.59;100.00;100012.09;4948433;28;20229;-80
2023/07/15 03:45:07;;;;;;;0.65;0.65;;;;;;;17.57;100.00;100007.72;4926040;29;20321;-79
2023/07/15 03:47:35;;;;;;;1.02;0.93;;;;;;;17.56;100.00;100005.94;4947145;28;20315;-79
2023/07/15 03:50:05;;;;;;;1.05;0.88;;;;;;;17.52;100.00;100002.47;4951405;28;20293;-79
2023/07/15 03:52:32;;;;;;;0.80;0.80;;;;;;;17.48;100.00;100007.94;4924516;29;20242;-80
2023/07/15 03:54:59;;;;;;;1.00;0.90;;;;;;;17.43;100.00;100021.44;4946158;28;20242;-78
2023/07/15 03:57:26;;;;;;;5.75;2.25;;;;;;;17.33;100.00;100027.03;4938864;29;20268;-79
2023/07/15 03:59:53;;;;;;;0.73;0.73;;;;;;;17.24;100.00;100028.16;4942611;29;20308;-80
2023/07/15 04:02:20;;;;;;;13.57;4.65;;;;;;;17.24;100.00;100023.69;4930194;28;20233;-79
2023/07/15 04:04:47;;;;;;;0.50;0.50;;;;;;;17.34;100.00;100029.69;4941808;28;20333;-79
2023/07/15 04:07:15;;;;;;;16.63;5.43;;;;;;;17.36;100.00;100043.00;4940042;28;20229;-80
2023/07/15 04:09:42;;;;;;;1.08;0.95;;;;;;;17.40;100.00;100042.88;4949522;28;20248;-79
2023/07/15 04:12:09;;;;;;;5.57;2.70;;;;;;;17.43;100.00;100037.47;4943132;29;20245;-79
2023/07/15 04:14:39;;;;;;;1.73;1.02;;;;;;;17.48;100.00;100042.69;4941732;29;20576;-80
2023/07/15 04:19:48;;;;;;;1.10;0.90;;;;;;;17.59;100.00;100048.66;4956783;23;20257;-73
2023/07/15 04:22:15;;;;;;;19.85;5.97;;;;;;;17.60;100.00;100045.94;4952719;28;20243;-72
2023/07/15 04:24:42;;;;;;;1.10;1.00;;;;;;;17.72;100.00;100059.94;4958599;28;20245;-72
2023/07/15 04:27:08;;;;;;;1.30;0.90;;;;;;;17.67;100.00;100070.75;4926504;28;20703;-72
2023/07/15 04:29:35;;;;;;;1.10;0.93;;;;;;;17.70;100.00;100076.03;4942593;28;20595;-72
2023/07/15 04:32:02;;;;;;;0.82;0.80;;;;;;;17.78;100.00;100070.47;4925544;29;20233;-73
2023/07/15 04:34:29;;;;;;;1.70;1.20;;;;;;;17.82;100.00;100075.72;4934852;28;20244;-73
2023/07/15 04:36:55;;;;;;;1.00;0.90;;;;;;;17.86;100.00;100076.50;4938718;28;20240;-73
2023/07/15 04:39:22;;;;;;;1.50;1.20;;;;;;;17.92;100.00;100079.03;4932736;28;20233;-72
2023/07/15 04:41:49;;;;;;;0.77;0.77;;;;;;;18.01;100.00;100070.75;4940591;28;20237;-73
2023/07/15 04:44:16;;;;;;;1.92;1.42;;;;;;;18.07;100.00;100067.03;4934251;29;20237;-73
2023/07/15 04:46:42;;;;;;;1.08;0.90;;;;;;;18.14;100.00;100061.47;4935762;28;20238;-74
2023/07/15 04:49:10;;;;;;;1.30;1.08;;;;;;;18.20;100.00;100055.06;4916592;28;20230;-74
2023/07/15 04:51:37;;;;;;;1.13;0.93;;;;;;;18.35;100.00;100068.03;4940612;28;20249;-73
2023/07/15 04:54:03;;;;;;;1.20;1.10;;;;;;;18.44;100.00;100077.59;4937739;28;20234;-74
2023/07/15 04:56:30;;;;;;;0.70;0.70;;;;;;;18.68;100.00;100094.78;4937735;28;20237;-73
2023/07/15 04:58:57;;;;;;;0.80;0.80;;;;;;;18.81;100.00;100086.34;4944677;28;20242;-74
2023/07/15 05:01:25;;;;;;;8.90;3.35;;;;;;;18.95;100.00;100090.41;4934006;28;20229;-75
2023/07/15 05:03:52;;;;;;;0.73;0.70;;;;;;;19.06;100.00;100073.06;4933609;28;20313;-76
2023/07/15 05:06:21;;;;;;;16.20;6.18;;;;;;;19.31;100.00;100099.09;4933519;28;20222;-73
2023/07/15 05:08:48;;;;;;;0.70;0.70;;;;;;;19.43;100.00;100093.34;4915502;28;20250;-74
2023/07/15 05:11:16;;;;;;;2.05;1.40;;;;;;;19.50;100.00;100074.34;4930600;28;20242;-75
2023/07/15 05:13:43;;;;;;;1.05;0.98;;;;;;;19.61;100.00;100076.69;4936813;28;20238;-74
2023/07/15 05:16:10;;;;;;;2.90;1.23;;;;;;;19.85;100.00;100061.56;4928388;28;20237;-74
2023/07/15 05:18:37;;;;;;;0.88;0.80;;;;;;;20.09;100.00;100033.84;4934005;28;20244;-75
2023/07/15 05:21:03;;;;;;;0.98;0.85;;;;;;;20.21;100.00;100026.28;4936744;28;20296;-74
2023/07/15 05:23:31;;;;;;;0.77;0.77;;;;;;;20.38;100.00;100013.09;4915690;28;20238;-75
2023/07/15 05:26:01;;;;;;;1.27;1.17;;;;;;;20.56;100.00;99998.13;4937910;28;20233;-74
2023/07/15 05:28:32;;;;;;;3.28;1.10;;;;;;;20.76;100.00;99982.97;4907766;29;20249;-73
2023/07/15 05:31:00;;;;;;;1.95;1.55;;;;;;;20.99;100.00;99959.69;4918726;29;20248;-74
2023/07/15 05:33:27;;;;;;;0.98;0.82;;;;;;;21.19;100.00;99940.91;4917663;29;20328;-74
2023/07/15 05:35:54;;;;;;;0.80;0.80;;;;;;;21.42;100.00;99928.34;5023115;23;20245;-78
2023/07/15 05:38:26;;;;;;;2.60;1.65;;;;;;;21.54;100.00;99923.28;4932817;28;20236;-79
2023/07/15 05:40:54;;;;;;;0.75;0.75;;;;;;;21.76;100.00;99903.50;4940215;28;20238;-78
2023/07/15 05:43:46;;;;;;;1.00;0.90;;;;;;;21.71;100.00;99884.84;4951482;28;20248;-78
2023/07/15 05:46:13;;;;;;;2.95;1.45;;;;;;;21.81;100.00;99871.84;4943102;28;20248;-78
2023/07/15 05:48:40;;;;;;;1.23;1.13;;;;;;;21.77;100.00;99849.59;4930564;28;20233;-79
2023/07/15 05:51:09;;;;;;;0.65;0.57;;;;;;;21.78;100.00;99837.88;4956768;28;20236;-78
2023/07/15 05:53:36;;;;;;;1.23;1.13;;;;;;;21.67;100.00;99808.78;4951913;28;20248;-80
2023/07/15 05:56:03;;;;;;;0.70;0.70;;;;;;;21.75;100.00;99808.41;4954978;28;20237;-80
2023/07/15 05:58:30;;;;;;;0.40;0.40;;;;;;;22.00;100.00;99819.78;4944755;28;20238;-81
2023/07/15 06:00:57;;;;;;;0.68;0.68;;;;;;;22.31;100.00;99827.31;4961486;28;20237;-82
2023/07/15 06:03:25;;;;;;;18.33;6.85;;;;;;;22.54;100.00;99806.44;4947125;28;20221;-80
2023/07/15 06:05:52;;;;;;;0.88;0.80;;;;;;;22.63;100.00;99777.22;4953105;28;20229;-80
2023/07/15 06:08:19;;;;;;;12.82;4.55;;;;;;;22.49;100.00;99760.88;4926446;28;20264;-80
2023/07/15 06:10:46;;;;;;;0.43;0.43;;;;;;;22.44;100.00;99744.06;4954206;28;20237;-81
2023/07/15 06:13:13;;;;;;;9.98;3.63;;;;;;;22.63;100.00;99744.00;4930190;28;20229;-82
2023/07/15 06:15:42;;;;;;;0.80;0.70;;;;;;;22.89;100.00;99751.63;4949041;28;20296;-81
2023/07/15 06:21:56;;;;;;;0.75;0.68;;;;;;;23.70;100.00;99730.25;4956661;28;20258;-79
2023/07/15 06:24:23;;;;;;;12.70;4.10;;;;;;;23.72;100.00;99690.53;4917329;28;20233;-79
2023/07/15 06:26:50;;;;;;;1.80;1.10;;;;;;;23.69;100.00;99672.69;4958179;28;20385;-77
2023/07/15 06:29:17;;;;;;;20.60;6.50;;;;;;;23.78;100.00;99669.44;4947989;28;20263;-77
2023/07/15 06:31:44;;;;;;;1.77;1.38;;;;;;;23.73;100.00;99660.75;4959518;28;20237;-76
2023/07/15 06:34:11;;;;;;;13.32;3.83;;;;;;;23.64;100.00;99645.06;4957911;28;20228;-75
2023/07/15 06:36:38;;;;;;;1.92;1.33;;;;;;;23.73;100.00;99638.28;4956693;28;20232;-76
2023/07/15 06:39:04;;;;;;;2.22;1.40;;;;;;;23.80;100.00;99624.34;4960844;28;20228;-78
2023/07/15 06:41:31;;;;;;;1.65;1.10;;;;;;;23.78;100.00;99615.44;4952245;28;20228;-77
2023/07/15 06:43:58;;;;;;;1.85;1.27;;;;;;;23.78;100.00;99584.88;4959673;28;20261;-78
2023/07/15 06:46:25;;;;;;;5.57;2.10;;;;;;;23.86;100.00;99590.72;4950648;28;20895;-78
2023/07/15 06:48:52;;;;;;;1.70;1.00;;;;;;;23.91;100.00;99597.56;4939698;28;20237;-78
2023/07/15 06:51:20;;;;;;;13.13;4.03;;;;;;;23.80;100.00;99562.25;4947723;28;20225;-78
2023/07/15 06:53:47;;;;;;;3.38;2.03;;;;;;;23.90;100.00;99558.03;4951615;28;20232;-77
2023/07/15 06:56:14;;;;;;;22.88;7.53;;;;;;;23.81;100.00;99541.50;4933806;28;20264;-76
2023/07/15 06:58:46;;;;;;;1.70;1.00;;;;;;;23.96;100.00;99528.91;4938590;28;20240;-76
2023/07/15 07:01:13;;;;;;;4.97;2.08;;;;;;;23.95;100.00;99546.94;4950154;28;20224;-76
2023/07/15 07:03:41;;;;;;;0.82;0.73;;;;;;;23.90;100.00;99549.94;4955974;28;20233;-76
2023/07/15 07:06:08;;;;;;;1.30;1.02;;;;;;;23.86;100.00;99523.19;4951934;28;20225;-76
2023/07/15 07:08:38;;;;;;;1.67;1.02;;;;;;;23.83;100.00;99516.16;4945655;28;20235;-76
2023/07/15 07:11:05;;;;;;;0.45;0.45;;;;;;;23.79;100.00;99521.84;4947984;28;20228;-77
2023/07/15 07:13:32;;;;;;;0.52;0.52;;;;;;;23.71;100.00;99508.78;4946204;28;20232;-77
2023/07/15 07:15:59;;;;;;;1.38;0.82;;;;;;;23.69;100.00;99504.44;4955788;28;20251;-76
2023/07/15 07:18:26;;;;;;;3.80;1.55;;;;;;;23.55;100.00;99489.94;4957192;28;20263;-77
2023/07/15 07:20:59;;;;;;;0.50;0.50;;;;;;;23.56;100.00;99471.91;4955282;28;20228;-78
2023/07/15 07:23:26;;;;;;;1.27;0.82;;;;;;;23.75;100.00;99480.66;4945736;28;20251;-78
2023/07/15 07:25:53;;;;;;;0.52;0.50;;;;;;;23.86;100.00;99502.47;4954023;28;20228;-78
2023/07/15 07:28:26;;;;;;;0.77;0.65;;;;;;;24.04;100.00;99519.38;4953233;28;20239;-78
2023/07/15 07:30:53;;;;;;;0.60;0.60;;;;;;;24.21;100.00;99527.34;4947466;28;20244;-79
2023/07/15 07:33:20;;;;;;;2.10;1.00;;;;;;;24.15;100.00;99494.44;4950028;28;20295;-78
2023/07/15 07:35:47;;;;;;;0.40;0.40;;;;;;;24.25;100.00;99482.94;4927917;28;20240;-78
2023/07/15 07:38:13;;;;;;;2.65;1.27;;;;;;;24.46;100.00;99536.66;4931490;29;20249;-78
2023/07/15 07:40:45;;;;;;;0.70;0.60;;;;;;;24.48;100.00;99513.97;4938027;28;20315;-78
2023/07/15 07:43:12;;;;;;;1.33;0.85;;;;;;;24.46;100.00;99506.94;4935457;29;20229;-79
2023/07/15 07:45:39;;;;;;;0.85;0.82;;;;;;;24.43;100.00;99478.25;4944515;28;20239;-78
2023/07/15 07:48:05;;;;;;;0.45;0.45;;;;;;;24.67;100.00;99507.41;4941024;28;20218;-78
2023/07/15 07:50:34;;;;;;;0.75;0.75;;;;;;;25.09;100.00;99499.28;4934403;28;20241;-78
2023/07/15 07:53:00;;;;;;;0.68;0.68;;;;;;;25.55;100.00;99530.56;4937323;28;20276;-78
2023/07/15 07:55:27;;;;;;;0.68;0.60;;;;;;;25.79;100.00;99502.72;4933624;28;20798;-78
2023/07/15 07:57:54;;;;;;;0.57;0.57;;;;;;;25.80;100.00;99465.66;4942806;28;20293;-78
2023/07/15 08:00:21;;;;;;;2.00;1.50;;;;;;;25.78;100.00;99459.50;4940336;28;20252;-80
2023/07/15 08:02:47;;;;;;;0.50;0.50;;;;;;;26.12;100.00;99455.31;4920359;29;20233;-79
2023/07/15 08:05:14;;;;;;;1.45;1.10;;;;;;;26.30;100.00;99464.88;4916316;29;20252;-78
2023/07/15 08:07:41;;;;;;;0.82;0.82;;;;;;;26.53;100.00;99451.53;4937151;28;20267;-79
2023/07/15 08:10:08;;;;;;;0.40;0.32;;;;;;;26.78;100.00;99384.53;4917468;29;20363;-76
2023/07/15 08:12:34;;;;;;;0.40;0.40;;;;;;;27.13;100.00;99372.03;4942086;28;20240;-77
2023/07/15 08:15:02;;;;;;;0.60;0.60;;;;;;;27.10;100.00;99365.88;4936245;28;20244;-77
2023/07/15 08:17:32;;;;;;;1.38;0.70;;;;;;;27.00;100.00;99351.28;4940526;28;20260;-78
2023/07/15 08:19:59;;;;;;;1.10;1.00;;;;;;;27.07;100.00;99343.53;4938009;29;20240;-78
2023/07/15 08:22:25;;;;;;;1.27;0.90;;;;;;;27.27;100.00;99348.28;4923684;29;20241;-78
2023/07/15 08:24:53;;;;;;;0.38;0.38;;;;;;;27.55;100.00;99346.19;4941788;29;20235;-76
2023/07/15 08:27:20;;;;;;;4.05;1.60;;;;;;;27.71;100.00;99358.47;4931691;28;20244;-77
2023/07/15 08:29:49;;;;;;;0.70;0.70;;;;;;;27.80;100.00;99293.53;4931742;28;20237;-77
2023/07/15 08:32:16;;;;;;;13.05;5.63;;;;;;;28.25;100.00;99305.28;4931423;28;20233;-78
2023/07/15 08:35:03;;;;;;;0.63;0.52;;;;;;;27.99;100.00;99299.22;4927058;29;20245;-77
2023/07/15 08:37:31;;;;;;;3.08;2.22;;;;;;;28.03;100.00;99265.38;4885934;28;20234;-77
2023/07/15 08:39:58;;;;;;;0.60;0.52;;;;;;;28.39;100.00;99291.41;4885146;28;20225;-78
2023/07/15 08:42:25;;;;;;;16.10;5.30;;;;;;;28.50;100.00;99250.59;4944280;28;20247;-78
2023/07/15 08:44:52;;;;;;;0.65;0.60;;;;;;;28.89;100.00;99273.63;4955771;28;20295;-79
2023/07/15 08:47:21;;;;;;;2.40;1.33;;;;;;;28.68;100.00;99177.47;4957912;28;20225;-77
2023/07/15 08:49:49;;;;;;;0.55;0.50;;;;;;;28.73;100.00;99232.38;4957807;28;20272;-79
2023/07/15 08:52:20;;;;;;;1.17;0.75;;;;;;;29.74;100.00;99297.16;4957269;28;20248;-78
2023/07/15 08:54:49;;;;;;;0.40;0.40;;;;;;;30.05;100.00;99255.34;4957075;28;20233;-78
2023/07/15 08:57:20;;;;;;;1.58;1.27;;;;;;;29.92;100.00;99198.31;4953220;28;20229;-78
2023/07/15 08:59:52;;;;;;;0.40;0.40;;;;;;;29.99;100.00;99173.22;4955354;28;20248;-78
2023/07/15 09:02:19;;;;;;;1.58;0.88;;;;;;;30.35;100.00;99174.44;4953713;28;20247;-78
2023/07/15 09:04:46;;;;;;;0.68;0.68;;;;;;;29.96;98.31;99092.59;4950157;28;20284;-77
2023/07/15 09:07:13;;;;;;;0.65;0.50;;;;;;;30.23;97.57;99098.22;4956380;28;20227;-77
2023/07/15 09:09:40;;;;;;;0.50;0.43;;;;;;;30.76;98.67;99156.97;4958321;28;20252;-77
2023/07/15 09:12:09;;;;;;;0.30;0.30;;;;;;;30.68;94.42;99078.56;4957656;28;20248;-78
2023/07/15 09:14:46;;;;;;;0.80;0.45;;;;;;;29.71;94.91;98981.38;4959564;28;20232;-78
2023/07/15 09:17:21;;;;;;;3.33;1.58;;;;;;;29.96;95.12;99013.53;4948068;28;20579;-79
2023/07/15 09:19:48;;;;;;;0.52;0.50;;;;;;;29.53;96.48;98971.19;4940262;28;20331;-78
2023/07/15 09:22:17;;;;;;;10.38;4.63;;;;;;;29.54;96.15;98964.72;4917006;28;20305;-79
2023/07/15 09:24:44;;;;;;;0.20;0.20;;;;;;;29.54;94.98;98951.13;4959345;28;20241;-78
2023/07/15 09:27:11;;;;;;;0.93;0.63;;;;;;;29.68;96.57;98976.22;4933137;28;20272;-79
2023/07/15 09:29:38;;;;;;;0.63;0.50;;;;;;;29.78;92.04;98945.25;4952884;28;20239;-78
2023/07/15 09:32:07;;;;;;;0.25;0.25;;;;;;;30.43;92.56;99009.06;4942548;28;20828;-78
2023/07/15 09:34:40;;;;;;;0.85;0.80;;;;;;;30.05;92.78;98944.56;4919639;28;20229;-78
2023/07/15 09:37:07;;;;;;;0.28;0.28;;;;;;;29.40;93.06;98858.91;4958244;28;20232;-78
2023/07/15 09:39:34;;;;;;;0.40;0.40;;;;;;;29.37;91.46;98842.84;4941404;28;20246;-77
2023/07/15 09:42:05;;;;;;;0.70;0.50;;;;;;;28.98;91.25;98806.59;4952059;28;20237;-77
2023/07/15 09:44:33;;;;;;;0.20;0.20;;;;;;;28.90;87.40;98791.00;4933388;28;20237;-78
2023/07/15 09:47:02;;;;;;;0.30;0.30;;;;;;;28.92;82.05;98733.69;4952932;28;20233;-78
2023/07/15 09:49:30;;;;;;;0.20;0.20;;;;;;;28.55;86.96;98752.50;4954164;28;20247;-78
2023/07/15 09:51:57;;;;;;;0.20;0.20;;;;;;;28.66;83.36;98734.22;4950805;28;20238;-78
2023/07/15 09:54:28;;;;;;;1.65;0.77;;;;;;;28.65;80.75;98685.41;4949792;28;20229;-78
2023/07/15 09:56:59;;;;;;;0.35;0.35;;;;;;;28.40;84.34;98683.22;4943711;28;20254;-78
2023/07/15 09:59:28;;;;;;;0.85;0.45;;;;;;;28.43;80.62;98647.59;4955050;28;20340;-78
2023/07/15 10:02:18;;;;;;;0.30;0.30;;;;;;;28.44;83.08;98665.63;4942583;28;20228;-77
2023/07/15 10:04:46;;;;;;;0.20;0.20;;;;;;;28.46;83.49;98674.50;4933302;28;20236;-77
2023/07/15 10:07:14;;;;;;;0.65;0.57;;;;;;;28.42;84.86;98681.22;4954542;28;20323;-76
2023/07/15 10:09:40;;;;;;;0.40;0.40;;;;;;;28.45;85.60;98680.94;4936415;28;20229;-76
2023/07/15 10:12:07;;;;;;;0.55;0.52;;;;;;;28.49;83.72;98666.91;4946807;28;20224;-77
2023/07/15 10:14:36;;;;;;;1.20;0.52;;;;;;;28.49;84.46;98679.66;4958837;28;20237;-76
2023/07/15 10:17:10;;;;;;;0.40;0.40;;;;;;;28.66;84.90;98696.16;4957586;28;20263;-77
2023/07/15 10:19:50;;;;;;;0.40;0.32;;;;;;;28.66;87.31;98708.91;4938618;28;20232;-77
2023/07/15 10:22:23;;;;;;;1.10;0.63;;;;;;;28.47;88.89;98701.56;4952853;28;20742;-77
2023/07/15 10:24:56;;;;;;;0.40;0.30;;;;;;;28.42;88.26;98701.13;4961990;28;20327;-77
2023/07/15 10:27:30;;;;;;;1.95;1.00;;;;;;;28.40;90.77;98734.88;4965057;28;20246;-77
2023/07/15 10:30:23;;;;;;;0.73;0.63;;;;;;;28.43;88.57;98730.03;4946237;28;20244;-77
2023/07/15 10:33:08;;;;;;;0.98;0.80;;;;;;;28.40;88.95;98721.28;4938854;28;20270;-75
2023/07/15 10:35:41;;;;;;;1.75;1.17;;;;;;;28.30;92.58;98732.16;4944043;28;20244;-76
2023/07/15 10:38:28;;;;;;;1.25;0.85;;;;;;;28.31;94.69;98774.63;4938022;28;20255;-77
2023/07/15 10:41:04;;;;;;;1.23;0.82;;;;;;;28.35;93.15;98765.22;4953324;28;20260;-77
2023/07/15 10:43:34;;;;;;;1.00;0.70;;;;;;;28.19;97.60;98798.31;4955492;28;20236;-77
2023/07/15 10:46:02;;;;;;;1.08;0.82;;;;;;;28.19;96.75;98784.72;4957814;28;20237;-77
2023/07/15 10:48:29;;;;;;;1.08;0.80;;;;;;;28.17;94.15;98764.13;4949704;28;20235;-77
2023/07/15 10:50:58;;;;;;;1.13;0.95;;;;;;;28.02;98.58;98813.41;4955275;28;20263;-77
2023/07/15 10:53:27;;;;;;;2.25;1.05;;;;;;;27.75;100.00;98855.72;4946349;28;20243;-78
2023/07/15 10:56:04;;;;;;;1.20;1.05;;;;;;;27.62;100.00;98889.34;4957253;28;20243;-78
2023/07/15 10:58:33;;;;;;;1.10;0.90;;;;;;;27.31;100.00;98956.22;4948896;28;20232;-77
2023/07/15 11:01:04;;;;;;;1.40;1.08;;;;;;;27.01;100.00;98975.00;4957374;28;20635;-77
2023/07/15 11:03:35;;;;;;;1.00;0.75;;;;;;;26.73;100.00;99019.72;4946634;28;20232;-76
2023/07/15 11:06:03;;;;;;;1.42;1.00;;;;;;;26.75;100.00;99036.75;4959785;28;20638;-77
2023/07/15 11:08:32;;;;;;;1.40;0.90;;;;;;;26.69;100.00;99057.09;4923646;28;20692;-78
2023/07/15 11:11:03;;;;;;;0.65;0.65;;;;;;;26.57;100.00;99090.59;4957712;28;20240;-77
2023/07/15 11:13:31;;;;;;;0.98;0.80;;;;;;;26.70;100.00;99115.75;4956481;28;20242;-77
2023/07/15 11:15:58;;;;;;;0.85;0.80;;;;;;;26.51;100.00;99152.56;4969312;28;20231;-77
2023/07/15 11:18:26;;;;;;;1.77;0.90;;;;;;;26.28;100.00;99189.50;4967252;28;20244;-77
2023/07/15 11:20:55;;;;;;;1.00;0.90;;;;;;;26.23;100.00;99213.38;4960150;28;20707;-77
2023/07/15 11:23:22;;;;;;;1.75;0.95;;;;;;;26.12;100.00;99231.31;4952420;28;20717;-77
2023/07/15 11:25:49;;;;;;;0.73;0.60;;;;;;;26.13;100.00;99243.00;4960540;28;20241;-78
2023/07/15 11:28:18;;;;;;;2.92;1.40;;;;;;;26.12;100.00;99266.53;4937195;28;20236;-77
2023/07/15 11:30:48;;;;;;;0.98;0.70;;;;;;;26.03;100.00;99280.75;4967359;28;20322;-77
2023/07/15 11:33:16;;;;;;;1.75;1.10;;;;;;;26.03;100.00;99275.31;4964904;28;20244;-78
2023/07/15 11:35:44;;;;;;;0.60;0.50;;;;;;;26.01;100.00;99266.44;4886530;28;20248;-76
2023/07/15 11:38:15;;;;;;;3.35;1.60;;;;;;;26.02;100.00;99283.56;4965202;23;20321;-78
2023/07/15 11:40:56;;;;;;;2.25;1.75;;;;;;;26.09;100.00;99291.13;4942885;28;20229;-76